Time;durP1;ratioP1;P1;durP2;ratioP2;P2;SDS_P1;SDS_P2;PMS_P1;PMS_P2;Temp;Humidity;BMP_temperature;BMP_pressure;BME280_temperature;BME280_humidity;BME280_pressure;Samples;Min_cycle;Max_cycle;Signal;HPM_P1;HPM_P2
2022/03/26 08:52:40;;;;;;;28.90;18.88;;;;;;;;;;6177685;22;20024;-87
2022/03/26 11:10:19;;;;;;;23.65;18.65;;;;;;;;;;6159866;23;20088;-91
2022/03/26 11:12:46;;;;;;;25.67;19.60;;;;;;;;;;6189102;23;20067;-90
2022/03/26 11:15:21;;;;;;;23.52;17.83;;;;;;;;;;6188626;23;20133;-89
2022/03/26 11:17:58;;;;;;;27.02;17.48;;;;;;;;;;6162673;23;20076;-89
2022/03/26 11:20:53;;;;;;;25.73;19.92;;;;;;;;;;6162467;23;20016;-86
2022/03/26 11:23:36;;;;;;;22.95;16.58;;;;;;;;;;6189368;23;20016;-90
2022/03/26 11:26:40;;;;;;;24.52;18.17;;;;;;;;;;6163805;23;20009;-88
2022/03/26 11:29:20;;;;;;;22.40;17.17;;;;;;;;;;6072862;23;20065;-91
2022/03/26 11:31:56;;;;;;;27.38;19.40;;;;;;;;;;6178390;23;20332;-90
2022/03/26 11:34:21;;;;;;;25.08;18.80;;;;;;;;;;6188924;23;20029;-91
2022/03/26 11:36:49;;;;;;;25.58;19.20;;;;;;;;;;6188215;23;20028;-88
2022/03/26 11:39:17;;;;;;;27.42;19.80;;;;;;;;;;6189600;23;20011;-91
2022/03/26 11:41:44;;;;;;;29.13;20.25;;;;;;;;;;6188891;23;20004;-95
2022/03/26 11:44:11;;;;;;;31.00;21.63;;;;;;;;;;6163878;23;20372;-91
2022/03/26 11:52:30;;;;;;;31.80;21.58;;;;;;;;;;6188148;23;20016;-92
2022/03/26 11:55:00;;;;;;;25.23;19.33;;;;;;;;;;6161225;23;20009;-88
2022/03/26 11:57:26;;;;;;;31.23;20.40;;;;;;;;;;6161568;23;20416;-90
2022/03/26 11:59:53;;;;;;;29.70;21.23;;;;;;;;;;6161430;23;20036;-90
2022/03/26 12:02:34;;;;;;;26.67;20.52;;;;;;;;;;6187878;23;20036;-89
2022/03/26 12:08:09;;;;;;;27.33;20.42;;;;;;;;;;6187847;23;20036;-89
2022/03/26 12:10:34;;;;;;;26.70;20.70;;;;;;;;;;6191331;23;20466;-90
2022/03/26 12:13:02;;;;;;;30.17;20.75;;;;;;;;;;6191659;23;20006;-90
2022/03/26 12:15:30;;;;;;;31.15;21.55;;;;;;;;;;6218254;23;20000;-93
2022/03/26 12:18:07;;;;;;;27.50;21.38;;;;;;;;;;6218930;23;20004;-91
2022/03/26 12:20:36;;;;;;;28.08;20.73;;;;;;;;;;6192099;23;20055;-93
2022/03/26 12:23:13;;;;;;;28.70;20.95;;;;;;;;;;6192627;23;20016;-94
2022/03/26 12:25:46;;;;;;;30.42;22.30;;;;;;;;;;6191667;23;20009;-92
2022/03/26 12:28:14;;;;;;;29.17;21.95;;;;;;;;;;6225618;23;19984;-91
2022/03/26 12:30:49;;;;;;;26.10;22.08;;;;;;;;;;6226498;23;20028;-94
2022/03/26 12:33:16;;;;;;;28.05;21.48;;;;;;;;;;6197787;23;20087;-93
2022/03/26 12:35:45;;;;;;;28.50;22.60;;;;;;;;;;6202907;23;20000;-87
2022/03/26 12:38:11;;;;;;;;;;;;;;;;;;6201132;23;20424;-87
2022/03/26 12:40:38;;;;;;;27.05;21.05;;;;;;;;;;6198675;23;19907;-93
2022/03/26 12:43:11;;;;;;;28.48;21.70;;;;;;;;;;6198481;23;20005;-94
2022/03/26 12:45:36;;;;;;;30.75;22.20;;;;;;;;;;6194943;23;20340;-93
2022/03/26 12:48:08;;;;;;;28.30;22.83;;;;;;;;;;6193892;23;20004;-96
2022/03/26 12:50:37;;;;;;;26.35;21.38;;;;;;;;;;6223448;23;20004;-94
2022/03/26 12:53:11;;;;;;;25.90;21.52;;;;;;;;;;6220695;23;20375;-93
2022/03/26 12:55:37;;;;;;;30.30;23.02;;;;;;;;;;6197534;23;20009;-94
2022/03/26 13:01:02;;;;;;;27.35;22.50;;;;;;;;;;6228176;23;20020;-91
2022/03/26 13:03:28;;;;;;;27.15;21.48;;;;;;;;;;6224215;23;20058;-95
2022/03/26 13:05:53;;;;;;;26.10;23.13;;;;;;;;;;6196277;23;20063;-89
2022/03/26 13:08:20;;;;;;;26.60;22.23;;;;;;;;;;6222774;23;20087;-93
2022/03/26 13:10:46;;;;;;;25.80;21.25;;;;;;;;;;6206508;23;20514;-91
2022/03/26 13:13:12;;;;;;;28.88;22.88;;;;;;;;;;6170696;23;20001;-92
2022/03/26 13:15:38;;;;;;;27.38;22.90;;;;;;;;;;6167798;23;20016;-94
2022/03/26 13:18:08;;;;;;;27.00;22.52;;;;;;;;;;6195276;23;20001;-92
2022/03/26 13:20:39;;;;;;;25.30;22.52;;;;;;;;;;6171456;23;20009;-92
2022/03/26 13:23:12;;;;;;;26.30;20.73;;;;;;;;;;6171286;23;20004;-88
2022/03/26 13:25:41;;;;;;;28.90;23.70;;;;;;;;;;6202492;23;20005;-89
2022/03/26 13:28:17;;;;;;;29.27;25.27;;;;;;;;;;6175220;23;20013;-93
2022/03/26 13:30:44;;;;;;;31.55;24.58;;;;;;;;;;6201021;23;20001;-93
2022/03/26 13:33:28;;;;;;;31.05;24.80;;;;;;;;;;6195074;23;20001;-91
2022/03/26 13:36:01;;;;;;;29.48;23.90;;;;;;;;;;6189748;23;20009;-93
2022/03/26 13:38:29;;;;;;;28.48;23.63;;;;;;;;;;6162121;23;20013;-91
2022/03/26 13:40:55;;;;;;;25.30;22.42;;;;;;;;;;6192438;23;20004;-87
2022/03/26 13:43:20;;;;;;;25.15;21.98;;;;;;;;;;6174336;23;20075;-90
2022/03/26 13:45:46;;;;;;;24.90;20.20;;;;;;;;;;6197823;23;20013;-93
2022/03/26 13:48:12;;;;;;;36.53;27.05;;;;;;;;;;6207292;23;20011;-90
2022/03/26 13:50:41;;;;;;;31.02;23.02;;;;;;;;;;6171771;23;20020;-94
2022/03/26 13:53:18;;;;;;;25.92;20.60;;;;;;;;;;6165566;23;20008;-95
2022/03/26 13:55:49;;;;;;;25.80;20.87;;;;;;;;;;6192631;23;20012;-94
2022/03/26 13:58:22;;;;;;;37.20;25.77;;;;;;;;;;6167036;23;20012;-95
2022/03/26 14:00:48;;;;;;;31.00;24.75;;;;;;;;;;6192279;23;20008;-94
2022/03/26 14:03:15;;;;;;;32.15;22.48;;;;;;;;;;6169609;23;20001;-93
2022/03/26 14:05:40;;;;;;;28.85;21.02;;;;;;;;;;6185912;23;20005;-88
2022/03/26 14:08:08;;;;;;;28.15;21.58;;;;;;;;;;6213787;23;20020;-89
2022/03/26 14:10:42;;;;;;;29.85;20.80;;;;;;;;;;6187860;23;20065;-87
2022/03/26 14:13:27;;;;;;;23.52;17.77;;;;;;;;;;6186339;23;20004;-89
2022/03/26 14:15:55;;;;;;;28.15;17.35;;;;;;;;;;6187474;23;20009;-87
2022/03/26 14:18:21;;;;;;;27.85;19.58;;;;;;;;;;6187397;23;20044;-87
2022/03/26 14:20:48;;;;;;;37.90;24.95;;;;;;;;;;6208617;23;20009;-85
2022/03/26 14:23:13;;;;;;;38.20;25.75;;;;;;;;;;6197513;23;20491;-90
2022/03/26 14:25:40;;;;;;;42.83;27.33;;;;;;;;;;6182160;23;20005;-87
2022/03/26 14:28:08;;;;;;;33.58;22.48;;;;;;;;;;6182891;23;20009;-88
2022/03/26 14:30:34;;;;;;;29.35;20.45;;;;;;;;;;6185584;23;20009;-91
2022/03/26 14:33:03;;;;;;;24.38;16.52;;;;;;;;;;6176892;23;20073;-90
2022/03/26 14:35:29;;;;;;;20.33;15.65;;;;;;;;;;6182045;23;20005;-88
2022/03/26 14:37:57;;;;;;;29.50;20.45;;;;;;;;;;6171806;23;20063;-89
2022/03/26 14:40:23;;;;;;;24.48;18.45;;;;;;;;;;6174811;23;20101;-88
2022/03/26 14:42:48;;;;;;;25.65;17.35;;;;;;;;;;6176890;23;20005;-89
2022/03/26 14:45:15;;;;;;;28.20;19.40;;;;;;;;;;6169249;23;20084;-85
2022/03/26 14:47:41;;;;;;;26.25;18.38;;;;;;;;;;6165071;23;20008;-87
2022/03/26 14:50:08;;;;;;;28.13;17.83;;;;;;;;;;6163154;23;20009;-89
2022/03/26 14:52:33;;;;;;;31.25;19.67;;;;;;;;;;6162291;23;20008;-88
2022/03/26 14:54:59;;;;;;;28.77;19.52;;;;;;;;;;6187707;23;20001;-87
2022/03/26 14:57:25;;;;;;;29.20;19.27;;;;;;;;;;6161290;23;20009;-88
2022/03/26 14:59:51;;;;;;;26.10;18.38;;;;;;;;;;6161687;23;20007;-90
2022/03/26 15:02:17;;;;;;;29.38;19.90;;;;;;;;;;6161591;23;20055;-89
2022/03/26 15:04:43;;;;;;;30.38;20.30;;;;;;;;;;6161521;23;20012;-89
2022/03/26 15:07:09;;;;;;;34.05;20.23;;;;;;;;;;6161793;23;20324;-88
2022/03/26 15:09:34;;;;;;;31.30;20.67;;;;;;;;;;6161327;23;20021;-88
2022/03/26 15:12:00;;;;;;;31.88;20.95;;;;;;;;;;6161270;23;20017;-87
2022/03/26 15:14:27;;;;;;;34.65;20.83;;;;;;;;;;6160927;23;20092;-87
2022/03/26 15:16:54;;;;;;;31.35;21.35;;;;;;;;;;6161511;23;20001;-86
2022/03/26 15:19:19;;;;;;;33.97;21.38;;;;;;;;;;6161100;23;20017;-89
2022/03/26 15:21:48;;;;;;;29.85;20.75;;;;;;;;;;6161177;23;20048;-87
2022/03/26 15:24:13;;;;;;;29.83;19.53;;;;;;;;;;6187246;23;20012;-87
2022/03/26 15:26:39;;;;;;;31.98;20.25;;;;;;;;;;6161502;23;20009;-88
2022/03/26 15:29:05;;;;;;;33.50;21.45;;;;;;;;;;6161316;23;20328;-88
2022/03/26 15:31:30;;;;;;;35.67;21.85;;;;;;;;;;6161492;23;20001;-88
2022/03/26 15:33:56;;;;;;;38.92;23.48;;;;;;;;;;6187491;23;20005;-87
2022/03/26 15:36:21;;;;;;;33.08;22.58;;;;;;;;;;6161150;23;20013;-89
2022/03/26 15:38:47;;;;;;;32.25;20.98;;;;;;;;;;6187912;23;20084;-89
2022/03/26 15:41:13;;;;;;;39.20;23.45;;;;;;;;;;6161532;23;20383;-89
2022/03/26 15:43:38;;;;;;;34.85;21.73;;;;;;;;;;6161479;23;20314;-89
2022/03/26 15:46:04;;;;;;;39.28;24.10;;;;;;;;;;6161333;23;20333;-88
2022/03/26 15:48:29;;;;;;;37.08;23.40;;;;;;;;;;6161857;23;20443;-89
2022/03/26 15:50:55;;;;;;;39.05;24.35;;;;;;;;;;6161580;23;20044;-89
2022/03/26 15:53:20;;;;;;;38.50;24.00;;;;;;;;;;6161446;23;20001;-90
2022/03/26 15:55:48;;;;;;;39.05;23.95;;;;;;;;;;6161859;23;20009;-89
2022/03/26 15:58:14;;;;;;;39.17;24.33;;;;;;;;;;6168387;23;20012;-88
2022/03/26 16:00:41;;;;;;;39.65;23.40;;;;;;;;;;6161852;23;20041;-84
2022/03/26 16:03:07;;;;;;;36.70;22.27;;;;;;;;;;6188164;23;20009;-84
2022/03/26 16:05:32;;;;;;;33.63;21.90;;;;;;;;;;6189489;23;20032;-91
2022/03/26 16:07:58;;;;;;;31.25;22.17;;;;;;;;;;6162962;23;20101;-92
2022/03/26 16:10:23;;;;;;;38.95;24.50;;;;;;;;;;6189902;23;20013;-88
2022/03/26 16:12:49;;;;;;;35.08;23.02;;;;;;;;;;6163598;23;20013;-88
2022/03/26 18:35:04;;;;;;;40.90;26.42;;;;;;;;;;6206994;22;20040;-88
2022/03/26 18:37:30;;;;;;;39.38;25.80;;;;;;;;;;6216105;23;20013;-88
2022/03/26 18:39:56;;;;;;;37.40;25.65;;;;;;;;;;6188528;23;20039;-85
2022/03/26 18:42:22;;;;;;;31.02;21.25;;;;;;;;;;6216143;23;20336;-83
2022/03/26 18:44:48;;;;;;;36.67;22.88;;;;;;;;;;6215699;23;20300;-84
2022/03/26 18:47:13;;;;;;;37.03;23.90;;;;;;;;;;6189404;23;20030;-85
2022/03/26 18:49:39;;;;;;;40.30;24.38;;;;;;;;;;6216739;23;20012;-85
2022/03/26 18:52:06;;;;;;;34.80;24.10;;;;;;;;;;6217651;23;20028;-85
2022/03/26 18:54:32;;;;;;;33.65;22.35;;;;;;;;;;6217556;23;20000;-86
2022/03/26 18:56:58;;;;;;;34.35;23.10;;;;;;;;;;6217669;23;20005;-85
2022/03/26 18:59:23;;;;;;;40.83;26.38;;;;;;;;;;6191026;23;20028;-84
2022/03/26 19:01:49;;;;;;;39.00;23.92;;;;;;;;;;6217495;23;20055;-85
2022/03/26 19:04:14;;;;;;;33.45;21.23;;;;;;;;;;6217879;23;20050;-83
2022/03/26 19:06:40;;;;;;;35.75;22.48;;;;;;;;;;6217579;23;20004;-84
2022/03/26 19:09:05;;;;;;;33.83;22.25;;;;;;;;;;6215892;23;20032;-84
2022/03/26 19:11:32;;;;;;;35.00;21.92;;;;;;;;;;6190454;23;20068;-85
2022/03/26 19:13:57;;;;;;;33.75;21.55;;;;;;;;;;6190633;23;20004;-83
2022/03/26 19:16:22;;;;;;;35.08;21.90;;;;;;;;;;6217197;23;20069;-84
2022/03/26 19:18:48;;;;;;;38.28;23.75;;;;;;;;;;6217503;23;20039;-84
2022/03/26 19:21:17;;;;;;;32.83;22.10;;;;;;;;;;6217421;23;20005;-88
2022/03/26 19:23:44;;;;;;;35.38;22.80;;;;;;;;;;6191219;23;20375;-87
2022/03/26 19:26:10;;;;;;;34.70;21.67;;;;;;;;;;6219312;23;20007;-87
2022/03/26 19:31:19;;;;;;;107.88;64.25;;;;;;;;;;6219741;23;20019;-86
2022/03/26 19:33:46;;;;;;;40.50;24.63;;;;;;;;;;6217399;23;20036;-87
2022/03/26 19:36:11;;;;;;;42.83;27.98;;;;;;;;;;6201954;23;20104;-86
2022/03/26 19:38:37;;;;;;;48.95;29.02;;;;;;;;;;6161103;23;20051;-86
2022/03/26 19:41:03;;;;;;;42.20;27.23;;;;;;;;;;6187460;23;20043;-89
2022/03/26 19:43:29;;;;;;;37.72;23.67;;;;;;;;;;6187316;23;20008;-86
2022/03/26 19:45:54;;;;;;;44.50;27.83;;;;;;;;;;6187927;23;20409;-89
2022/03/26 19:48:20;;;;;;;46.72;28.05;;;;;;;;;;6187398;23;20004;-88
2022/03/26 19:50:45;;;;;;;39.65;24.92;;;;;;;;;;6187927;23;20005;-85
2022/03/26 19:53:11;;;;;;;36.38;23.50;;;;;;;;;;6187741;23;20444;-86
2022/03/26 19:55:36;;;;;;;36.60;23.45;;;;;;;;;;6161169;23;20006;-85
2022/03/26 19:58:02;;;;;;;37.75;22.10;;;;;;;;;;6187032;23;20072;-84
2022/03/26 20:00:27;;;;;;;35.00;21.83;;;;;;;;;;6186930;23;20075;-83
2022/03/26 20:02:53;;;;;;;35.42;22.55;;;;;;;;;;6187092;23;20009;-84
2022/03/26 20:05:18;;;;;;;38.42;22.67;;;;;;;;;;6186565;23;20029;-85
2022/03/26 20:07:44;;;;;;;35.63;22.55;;;;;;;;;;6187102;23;20001;-84
2022/03/26 20:10:11;;;;;;;37.47;23.90;;;;;;;;;;6160625;23;20009;-85
2022/03/26 20:12:37;;;;;;;39.42;23.90;;;;;;;;;;6187046;23;20005;-87
2022/03/26 20:15:03;;;;;;;39.78;24.77;;;;;;;;;;6187381;23;20005;-90
2022/03/26 20:20:12;;;;;;;41.22;24.35;;;;;;;;;;6187266;23;20388;-88
2022/03/26 20:22:38;;;;;;;42.55;23.67;;;;;;;;;;6186812;23;20005;-85
2022/03/26 20:25:04;;;;;;;39.30;23.58;;;;;;;;;;6184855;23;20001;-86
2022/03/26 20:27:29;;;;;;;36.92;23.83;;;;;;;;;;6186626;23;20001;-84
2022/03/26 20:29:56;;;;;;;49.60;28.40;;;;;;;;;;6186458;23;20080;-85
2022/03/26 20:32:22;;;;;;;47.47;29.02;;;;;;;;;;6186316;23;20005;-85
2022/03/26 20:34:48;;;;;;;46.45;27.13;;;;;;;;;;6186657;23;20083;-85
2022/03/26 20:37:14;;;;;;;38.20;25.02;;;;;;;;;;6186670;23;20425;-85
2022/03/26 20:39:40;;;;;;;39.88;24.27;;;;;;;;;;6186711;23;20331;-84
2022/03/26 20:42:06;;;;;;;40.65;23.70;;;;;;;;;;6161110;23;20061;-88
2022/03/26 20:44:33;;;;;;;40.40;24.10;;;;;;;;;;6166028;23;20008;-87
2022/03/26 20:46:59;;;;;;;41.92;24.50;;;;;;;;;;6192929;23;20005;-86
2022/03/26 20:49:25;;;;;;;40.42;24.65;;;;;;;;;;6190014;23;20431;-86
2022/03/26 20:51:54;;;;;;;40.13;25.42;;;;;;;;;;6162253;23;20012;-91
2022/03/26 20:54:21;;;;;;;42.70;26.42;;;;;;;;;;6188117;23;20005;-93
2022/03/26 20:56:48;;;;;;;40.15;24.42;;;;;;;;;;6160549;23;20008;-87
2022/03/26 20:59:14;;;;;;;44.17;26.05;;;;;;;;;;6160093;23;20087;-91
2022/03/26 21:01:39;;;;;;;47.83;27.08;;;;;;;;;;6186676;23;20055;-87
2022/03/26 21:04:05;;;;;;;38.05;24.27;;;;;;;;;;6161222;23;20384;-86
2022/03/26 21:06:30;;;;;;;39.35;24.30;;;;;;;;;;6188468;23;20072;-93
2022/03/26 21:08:55;;;;;;;43.17;26.42;;;;;;;;;;6162551;23;20447;-93
2022/03/26 21:11:21;;;;;;;44.70;26.95;;;;;;;;;;6186896;23;20016;-86
2022/03/26 21:13:46;;;;;;;45.83;28.05;;;;;;;;;;6186419;23;20058;-83
2022/03/26 21:16:12;;;;;;;39.13;23.33;;;;;;;;;;6186590;23;20005;-88
2022/03/26 21:18:39;;;;;;;40.67;24.65;;;;;;;;;;6159932;23;20059;-86
2022/03/26 21:21:05;;;;;;;50.95;30.33;;;;;;;;;;6186315;23;20008;-85
2022/03/26 21:23:31;;;;;;;51.92;30.02;;;;;;;;;;6185979;23;20037;-86
2022/03/26 21:26:00;;;;;;;48.63;28.15;;;;;;;;;;6186666;23;20005;-84
2022/03/26 21:28:25;;;;;;;46.25;28.23;;;;;;;;;;6159705;23;20122;-84
2022/03/26 21:30:52;;;;;;;46.03;28.00;;;;;;;;;;6159779;23;20432;-84
2022/03/26 21:33:19;;;;;;;45.13;28.02;;;;;;;;;;6159431;23;20096;-85
2022/03/26 21:35:45;;;;;;;45.35;27.98;;;;;;;;;;6185808;23;20020;-85
2022/03/26 21:38:13;;;;;;;38.78;25.38;;;;;;;;;;6159585;23;20483;-84
2022/03/26 21:40:42;;;;;;;46.22;26.50;;;;;;;;;;6159682;23;20009;-85
2022/03/26 21:43:08;;;;;;;40.42;25.98;;;;;;;;;;6185992;23;20044;-83
2022/03/26 21:45:34;;;;;;;42.33;25.70;;;;;;;;;;6185779;23;20001;-85
2022/03/26 21:48:01;;;;;;;43.08;24.98;;;;;;;;;;6159613;23;20051;-84
2022/03/26 21:50:27;;;;;;;46.22;26.77;;;;;;;;;;6159569;23;20009;-85
2022/03/26 21:52:53;;;;;;;43.90;26.63;;;;;;;;;;6159408;23;20020;-85
2022/03/26 21:55:19;;;;;;;43.78;26.45;;;;;;;;;;6185639;23;20376;-85
2022/03/26 21:57:44;;;;;;;44.08;25.23;;;;;;;;;;6159612;23;20005;-84
2022/03/26 22:00:11;;;;;;;47.97;29.38;;;;;;;;;;6186044;23;20009;-85
2022/03/26 22:02:37;;;;;;;49.75;29.58;;;;;;;;;;6159330;23;20132;-85
2022/03/26 22:05:03;;;;;;;47.72;28.83;;;;;;;;;;6185827;23;20008;-85
2022/03/26 22:07:29;;;;;;;48.53;29.27;;;;;;;;;;6185667;23;20080;-85
2022/03/26 22:09:54;;;;;;;45.47;27.30;;;;;;;;;;6183913;23;20072;-85
2022/03/26 22:12:20;;;;;;;45.83;27.75;;;;;;;;;;6185772;23;20002;-87
2022/03/26 22:14:45;;;;;;;48.85;28.23;;;;;;;;;;6159878;23;20055;-91
